sensor_id;sensor_type;location;lat;lon;timestamp;temperature;humidity
16505;HTU21D;8365;51.030;4.696;2023-04-24T00:01:21;10.05;118.99
16505;HTU21D;8365;51.030;4.696;2023-04-24T00:03:52;10.14;118.99
16505;HTU21D;8365;51.030;4.696;2023-04-24T00:06:22;10.21;118.99
16505;HTU21D;8365;51.030;4.696;2023-04-24T00:08:53;10.16;118.99
16505;HTU21D;8365;51.030;4.696;2023-04-24T00:11:24;10.19;118.99
16505;HTU21D;8365;51.030;4.696;2023-04-24T00:13:55;10.15;118.99
16505;HTU21D;8365;51.030;4.696;2023-04-24T00:16:26;10.19;118.99
16505;HTU21D;8365;51.030;4.696;2023-04-24T00:18:59;10.16;118.99
16505;HTU21D;8365;51.030;4.696;2023-04-24T00:21:31;10.25;118.99
16505;HTU21D;8365;51.030;4.696;2023-04-24T00:24:02;10.21;118.99
16505;HTU21D;8365;51.030;4.696;2023-04-24T00:26:33;10.14;118.99
16505;HTU21D;8365;51.030;4.696;2023-04-24T00:29:04;10.34;118.99
16505;HTU21D;8365;51.030;4.696;2023-04-24T00:31:34;10.23;118.99
16505;HTU21D;8365;51.030;4.696;2023-04-24T00:34:05;10.18;118.99
16505;HTU21D;8365;51.030;4.696;2023-04-24T00:36:35;10.18;118.99
16505;HTU21D;8365;51.030;4.696;2023-04-24T00:39:06;10.26;118.99
16505;HTU21D;8365;51.030;4.696;2023-04-24T00:41:38;10.15;118.99
16505;HTU21D;8365;51.030;4.696;2023-04-24T00:44:09;10.16;118.99
16505;HTU21D;8365;51.030;4.696;2023-04-24T00:46:39;10.09;118.99
16505;HTU21D;8365;51.030;4.696;2023-04-24T00:49:11;10.14;118.99
16505;HTU21D;8365;51.030;4.696;2023-04-24T00:51:42;10.19;118.99
16505;HTU21D;8365;51.030;4.696;2023-04-24T00:54:15;10.19;118.99
16505;HTU21D;8365;51.030;4.696;2023-04-24T00:56:46;10.13;118.99
16505;HTU21D;8365;51.030;4.696;2023-04-24T00:59:17;10.11;118.99
16505;HTU21D;8365;51.030;4.696;2023-04-24T01:01:48;10.11;118.99
16505;HTU21D;8365;51.030;4.696;2023-04-24T01:04:18;10.09;118.99
16505;HTU21D;8365;51.030;4.696;2023-04-24T01:06:50;10.05;118.99
16505;HTU21D;8365;51.030;4.696;2023-04-24T01:09:23;10.01;118.99
16505;HTU21D;8365;51.030;4.696;2023-04-24T01:11:54;9.85;118.99
16505;HTU21D;8365;51.030;4.696;2023-04-24T01:14:25;9.92;118.99
16505;HTU21D;8365;51.030;4.696;2023-04-24T01:16:56;9.81;118.99
16505;HTU21D;8365;51.030;4.696;2023-04-24T01:19:27;9.86;118.99
16505;HTU21D;8365;51.030;4.696;2023-04-24T01:21:59;9.88;118.99
16505;HTU21D;8365;51.030;4.696;2023-04-24T01:24:32;9.88;118.99
16505;HTU21D;8365;51.030;4.696;2023-04-24T01:27:02;9.85;118.99
16505;HTU21D;8365;51.030;4.696;2023-04-24T01:29:33;9.81;118.99
16505;HTU21D;8365;51.030;4.696;2023-04-24T01:32:05;9.81;118.99
16505;HTU21D;8365;51.030;4.696;2023-04-24T01:34:35;9.84;118.99
16505;HTU21D;8365;51.030;4.696;2023-04-24T01:37:06;9.86;118.99
16505;HTU21D;8365;51.030;4.696;2023-04-24T01:39:37;9.78;118.99
16505;HTU21D;8365;51.030;4.696;2023-04-24T01:42:10;9.81;118.99
16505;HTU21D;8365;51.030;4.696;2023-04-24T01:44:42;9.79;118.99
16505;HTU21D;8365;51.030;4.696;2023-04-24T01:47:13;9.85;118.99
16505;HTU21D;8365;51.030;4.696;2023-04-24T01:49:45;9.82;118.99
16505;HTU21D;8365;51.030;4.696;2023-04-24T01:52:16;9.84;118.99
16505;HTU21D;8365;51.030;4.696;2023-04-24T01:54:47;9.81;118.99
16505;HTU21D;8365;51.030;4.696;2023-04-24T01:57:18;9.80;118.99
16505;HTU21D;8365;51.030;4.696;2023-04-24T01:59:48;9.82;118.99
16505;HTU21D;8365;51.030;4.696;2023-04-24T02:02:19;9.84;118.99
16505;HTU21D;8365;51.030;4.696;2023-04-24T02:04:51;9.88;118.99
16505;HTU21D;8365;51.030;4.696;2023-04-24T02:07:21;9.89;118.99
16505;HTU21D;8365;51.030;4.696;2023-04-24T02:09:52;9.97;118.99
16505;HTU21D;8365;51.030;4.696;2023-04-24T02:12:22;9.92;118.99
16505;HTU21D;8365;51.030;4.696;2023-04-24T02:14:53;9.86;118.99
16505;HTU21D;8365;51.030;4.696;2023-04-24T02:17:23;9.86;118.99
16505;HTU21D;8365;51.030;4.696;2023-04-24T02:19:54;9.83;118.99
16505;HTU21D;8365;51.030;4.696;2023-04-24T02:22:24;9.86;118.99
16505;HTU21D;8365;51.030;4.696;2023-04-24T02:24:55;9.79;118.99
16505;HTU21D;8365;51.030;4.696;2023-04-24T02:27:25;9.82;118.99
16505;HTU21D;8365;51.030;4.696;2023-04-24T02:29:56;9.62;118.99
16505;HTU21D;8365;51.030;4.696;2023-04-24T02:32:26;9.60;118.99
16505;HTU21D;8365;51.030;4.696;2023-04-24T02:34:59;9.49;118.99
16505;HTU21D;8365;51.030;4.696;2023-04-24T02:37:29;9.41;118.99
16505;HTU21D;8365;51.030;4.696;2023-04-24T02:40:00;9.35;118.99
16505;HTU21D;8365;51.030;4.696;2023-04-24T02:42:30;9.21;118.99
16505;HTU21D;8365;51.030;4.696;2023-04-24T02:45:03;9.33;118.99
16505;HTU21D;8365;51.030;4.696;2023-04-24T02:47:35;9.34;118.99
16505;HTU21D;8365;51.030;4.696;2023-04-24T02:50:06;9.32;118.99
16505;HTU21D;8365;51.030;4.696;2023-04-24T02:52:37;9.31;118.99
16505;HTU21D;8365;51.030;4.696;2023-04-24T02:55:07;9.25;118.99
16505;HTU21D;8365;51.030;4.696;2023-04-24T02:57:38;9.14;118.99
16505;HTU21D;8365;51.030;4.696;2023-04-24T03:00:09;9.17;118.99
16505;HTU21D;8365;51.030;4.696;2023-04-24T03:02:39;9.16;118.99
16505;HTU21D;8365;51.030;4.696;2023-04-24T03:05:10;9.17;118.99
16505;HTU21D;8365;51.030;4.696;2023-04-24T03:07:42;9.23;118.99
16505;HTU21D;8365;51.030;4.696;2023-04-24T03:10:12;9.20;118.99
16505;HTU21D;8365;51.030;4.696;2023-04-24T03:12:43;9.22;118.99
16505;HTU21D;8365;51.030;4.696;2023-04-24T03:15:13;9.23;118.99
16505;HTU21D;8365;51.030;4.696;2023-04-24T03:17:44;9.22;118.99
16505;HTU21D;8365;51.030;4.696;2023-04-24T03:20:15;9.12;118.99
16505;HTU21D;8365;51.030;4.696;2023-04-24T03:22:46;9.17;118.99
16505;HTU21D;8365;51.030;4.696;2023-04-24T03:25:16;9.12;118.99
16505;HTU21D;8365;51.030;4.696;2023-04-24T03:27:46;9.07;118.99
16505;HTU21D;8365;51.030;4.696;2023-04-24T03:30:17;9.03;118.99
16505;HTU21D;8365;51.030;4.696;2023-04-24T03:32:48;9.10;118.99
16505;HTU21D;8365;51.030;4.696;2023-04-24T03:35:18;8.97;118.99
16505;HTU21D;8365;51.030;4.696;2023-04-24T03:37:48;8.97;118.99
16505;HTU21D;8365;51.030;4.696;2023-04-24T03:40:19;9.01;118.99
16505;HTU21D;8365;51.030;4.696;2023-04-24T03:42:49;8.93;118.99
16505;HTU21D;8365;51.030;4.696;2023-04-24T03:45:20;8.92;118.99
16505;HTU21D;8365;51.030;4.696;2023-04-24T03:47:51;8.96;118.99
16505;HTU21D;8365;51.030;4.696;2023-04-24T03:50:21;8.90;118.99
16505;HTU21D;8365;51.030;4.696;2023-04-24T03:52:54;8.83;118.99
16505;HTU21D;8365;51.030;4.696;2023-04-24T03:55:24;8.88;118.99
16505;HTU21D;8365;51.030;4.696;2023-04-24T03:57:55;8.80;118.99
16505;HTU21D;8365;51.030;4.696;2023-04-24T04:00:25;8.81;118.99
16505;HTU21D;8365;51.030;4.696;2023-04-24T04:02:59;8.76;118.99
16505;HTU21D;8365;51.030;4.696;2023-04-24T04:05:29;8.79;118.99
16505;HTU21D;8365;51.030;4.696;2023-04-24T04:08:00;8.73;118.99
16505;HTU21D;8365;51.030;4.696;2023-04-24T04:10:30;8.77;118.99
16505;HTU21D;8365;51.030;4.696;2023-04-24T04:13:01;8.73;118.99
16505;HTU21D;8365;51.030;4.696;2023-04-24T04:15:31;8.75;118.99
16505;HTU21D;8365;51.030;4.696;2023-04-24T04:18:02;8.76;118.99
16505;HTU21D;8365;51.030;4.696;2023-04-24T04:20:33;8.72;118.99
16505;HTU21D;8365;51.030;4.696;2023-04-24T04:23:03;8.68;118.99
16505;HTU21D;8365;51.030;4.696;2023-04-24T04:25:33;8.72;118.99
16505;HTU21D;8365;51.030;4.696;2023-04-24T04:28:04;8.73;118.99
16505;HTU21D;8365;51.030;4.696;2023-04-24T04:30:35;8.72;118.99
16505;HTU21D;8365;51.030;4.696;2023-04-24T04:33:08;8.71;118.99
16505;HTU21D;8365;51.030;4.696;2023-04-24T04:35:38;8.68;118.99
16505;HTU21D;8365;51.030;4.696;2023-04-24T04:38:10;8.65;118.99
16505;HTU21D;8365;51.030;4.696;2023-04-24T04:40:43;8.62;118.99
16505;HTU21D;8365;51.030;4.696;2023-04-24T04:43:16;8.72;118.99
16505;HTU21D;8365;51.030;4.696;2023-04-24T04:45:46;8.57;118.99
16505;HTU21D;8365;51.030;4.696;2023-04-24T04:48:18;8.58;118.99
16505;HTU21D;8365;51.030;4.696;2023-04-24T04:50:49;8.52;118.99
16505;HTU21D;8365;51.030;4.696;2023-04-24T04:53:19;8.55;118.99
16505;HTU21D;8365;51.030;4.696;2023-04-24T04:55:50;8.51;118.99
16505;HTU21D;8365;51.030;4.696;2023-04-24T04:58:20;8.57;118.99
16505;HTU21D;8365;51.030;4.696;2023-04-24T05:00:53;8.57;118.99
16505;HTU21D;8365;51.030;4.696;2023-04-24T05:03:24;8.51;118.99
16505;HTU21D;8365;51.030;4.696;2023-04-24T05:05:54;8.50;118.99
16505;HTU21D;8365;51.030;4.696;2023-04-24T05:08:24;8.48;118.99
16505;HTU21D;8365;51.030;4.696;2023-04-24T05:10:57;8.45;118.99
16505;HTU21D;8365;51.030;4.696;2023-04-24T05:13:28;8.43;118.99
16505;HTU21D;8365;51.030;4.696;2023-04-24T05:15:58;8.43;118.99
16505;HTU21D;8365;51.030;4.696;2023-04-24T05:18:29;8.34;118.99
16505;HTU21D;8365;51.030;4.696;2023-04-24T05:21:00;8.33;118.99
16505;HTU21D;8365;51.030;4.696;2023-04-24T05:23:31;8.43;118.99
16505;HTU21D;8365;51.030;4.696;2023-04-24T05:26:01;8.35;118.99
16505;HTU21D;8365;51.030;4.696;2023-04-24T05:28:32;8.43;118.99
16505;HTU21D;8365;51.030;4.696;2023-04-24T05:31:03;8.44;118.99
16505;HTU21D;8365;51.030;4.696;2023-04-24T05:33:33;8.38;118.99
16505;HTU21D;8365;51.030;4.696;2023-04-24T05:36:04;8.49;118.99
16505;HTU21D;8365;51.030;4.696;2023-04-24T05:38:36;8.53;118.99
16505;HTU21D;8365;51.030;4.696;2023-04-24T05:41:06;8.53;118.99
16505;HTU21D;8365;51.030;4.696;2023-04-24T05:43:37;8.59;118.99
16505;HTU21D;8365;51.030;4.696;2023-04-24T05:46:07;8.51;118.99
16505;HTU21D;8365;51.030;4.696;2023-04-24T05:48:38;8.41;118.99
16505;HTU21D;8365;51.030;4.696;2023-04-24T05:51:10;8.43;118.99
16505;HTU21D;8365;51.030;4.696;2023-04-24T05:53:41;8.46;118.99
16505;HTU21D;8365;51.030;4.696;2023-04-24T05:56:11;8.41;118.99
16505;HTU21D;8365;51.030;4.696;2023-04-24T05:58:42;8.43;118.99
16505;HTU21D;8365;51.030;4.696;2023-04-24T06:01:15;8.52;118.99
16505;HTU21D;8365;51.030;4.696;2023-04-24T06:03:45;8.60;118.99
16505;HTU21D;8365;51.030;4.696;2023-04-24T06:06:18;8.52;118.99
16505;HTU21D;8365;51.030;4.696;2023-04-24T06:08:49;8.51;118.99
16505;HTU21D;8365;51.030;4.696;2023-04-24T06:11:20;8.51;118.99
16505;HTU21D;8365;51.030;4.696;2023-04-24T06:13:50;8.47;118.99
16505;HTU21D;8365;51.030;4.696;2023-04-24T06:16:22;8.47;118.99
16505;HTU21D;8365;51.030;4.696;2023-04-24T06:18:52;8.52;118.99
16505;HTU21D;8365;51.030;4.696;2023-04-24T06:21:23;8.57;118.99
16505;HTU21D;8365;51.030;4.696;2023-04-24T06:23:53;8.52;118.99
16505;HTU21D;8365;51.030;4.696;2023-04-24T06:26:24;8.59;118.99
16505;HTU21D;8365;51.030;4.696;2023-04-24T06:28:56;8.56;118.99
16505;HTU21D;8365;51.030;4.696;2023-04-24T06:31:29;8.62;118.99
16505;HTU21D;8365;51.030;4.696;2023-04-24T06:34:02;8.67;118.99
16505;HTU21D;8365;51.030;4.696;2023-04-24T06:36:33;8.71;118.99
16505;HTU21D;8365;51.030;4.696;2023-04-24T06:39:05;8.76;118.99
16505;HTU21D;8365;51.030;4.696;2023-04-24T06:41:35;8.74;118.99
16505;HTU21D;8365;51.030;4.696;2023-04-24T06:44:05;8.61;118.99
16505;HTU21D;8365;51.030;4.696;2023-04-24T06:46:36;8.64;118.99
16505;HTU21D;8365;51.030;4.696;2023-04-24T06:49:06;8.60;118.99
16505;HTU21D;8365;51.030;4.696;2023-04-24T06:51:37;8.59;118.99
16505;HTU21D;8365;51.030;4.696;2023-04-24T06:54:07;8.66;118.99
16505;HTU21D;8365;51.030;4.696;2023-04-24T06:56:38;8.68;118.99
16505;HTU21D;8365;51.030;4.696;2023-04-24T06:59:08;8.63;118.99
16505;HTU21D;8365;51.030;4.696;2023-04-24T07:01:39;8.64;118.99
16505;HTU21D;8365;51.030;4.696;2023-04-24T07:04:09;8.64;118.99
16505;HTU21D;8365;51.030;4.696;2023-04-24T07:06:39;8.66;118.99
16505;HTU21D;8365;51.030;4.696;2023-04-24T07:09:10;8.68;118.99
16505;HTU21D;8365;51.030;4.696;2023-04-24T07:11:40;8.68;118.99
16505;HTU21D;8365;51.030;4.696;2023-04-24T07:14:11;8.67;118.99
16505;HTU21D;8365;51.030;4.696;2023-04-24T07:16:42;8.67;118.99
16505;HTU21D;8365;51.030;4.696;2023-04-24T07:19:13;8.61;118.99
16505;HTU21D;8365;51.030;4.696;2023-04-24T07:21:44;8.68;118.99
16505;HTU21D;8365;51.030;4.696;2023-04-24T07:24:14;8.75;118.99
16505;HTU21D;8365;51.030;4.696;2023-04-24T07:26:45;8.76;118.99
16505;HTU21D;8365;51.030;4.696;2023-04-24T07:29:16;8.71;118.99
16505;HTU21D;8365;51.030;4.696;2023-04-24T07:31:47;8.83;118.99
16505;HTU21D;8365;51.030;4.696;2023-04-24T07:34:17;8.77;118.99
16505;HTU21D;8365;51.030;4.696;2023-04-24T07:36:48;8.93;118.99
16505;HTU21D;8365;51.030;4.696;2023-04-24T07:39:18;9.00;118.99
16505;HTU21D;8365;51.030;4.696;2023-04-24T07:41:49;9.18;118.99
16505;HTU21D;8365;51.030;4.696;2023-04-24T07:44:19;9.24;118.99
16505;HTU21D;8365;51.030;4.696;2023-04-24T07:46:50;9.38;118.99
16505;HTU21D;8365;51.030;4.696;2023-04-24T07:49:23;9.48;118.99
16505;HTU21D;8365;51.030;4.696;2023-04-24T07:51:53;9.47;118.99
16505;HTU21D;8365;51.030;4.696;2023-04-24T07:54:24;9.49;118.99
16505;HTU21D;8365;51.030;4.696;2023-04-24T07:56:54;9.44;118.99
16505;HTU21D;8365;51.030;4.696;2023-04-24T07:59:25;9.47;118.99
16505;HTU21D;8365;51.030;4.696;2023-04-24T08:01:58;9.65;118.99
16505;HTU21D;8365;51.030;4.696;2023-04-24T08:04:28;9.84;118.99
16505;HTU21D;8365;51.030;4.696;2023-04-24T08:06:59;9.81;118.99
16505;HTU21D;8365;51.030;4.696;2023-04-24T08:09:29;9.71;118.99
16505;HTU21D;8365;51.030;4.696;2023-04-24T08:12:00;9.70;118.99
16505;HTU21D;8365;51.030;4.696;2023-04-24T08:14:31;9.67;118.99
16505;HTU21D;8365;51.030;4.696;2023-04-24T08:17:01;9.82;118.99
16505;HTU21D;8365;51.030;4.696;2023-04-24T08:19:32;9.76;118.99
16505;HTU21D;8365;51.030;4.696;2023-04-24T08:22:03;9.59;118.99
16505;HTU21D;8365;51.030;4.696;2023-04-24T08:24:34;9.71;118.99
16505;HTU21D;8365;51.030;4.696;2023-04-24T08:27:08;9.81;118.99
16505;HTU21D;8365;51.030;4.696;2023-04-24T08:29:41;9.88;118.99
16505;HTU21D;8365;51.030;4.696;2023-04-24T08:32:11;10.04;118.99
16505;HTU21D;8365;51.030;4.696;2023-04-24T08:34:42;10.09;118.99
16505;HTU21D;8365;51.030;4.696;2023-04-24T08:37:12;10.07;118.99
16505;HTU21D;8365;51.030;4.696;2023-04-24T08:39:43;10.20;118.99
16505;HTU21D;8365;51.030;4.696;2023-04-24T08:42:14;10.27;118.99
16505;HTU21D;8365;51.030;4.696;2023-04-24T08:44:46;10.25;118.99
16505;HTU21D;8365;51.030;4.696;2023-04-24T08:47:19;10.34;118.99
16505;HTU21D;8365;51.030;4.696;2023-04-24T08:49:51;10.40;118.99
16505;HTU21D;8365;51.030;4.696;2023-04-24T08:52:22;10.49;118.99
16505;HTU21D;8365;51.030;4.696;2023-04-24T08:54:53;10.90;118.99
16505;HTU21D;8365;51.030;4.696;2023-04-24T08:57:25;10.87;118.99
16505;HTU21D;8365;51.030;4.696;2023-04-24T08:59:57;11.02;118.99
16505;HTU21D;8365;51.030;4.696;2023-04-24T09:02:30;10.93;118.99
16505;HTU21D;8365;51.030;4.696;2023-04-24T09:05:02;10.87;118.99
16505;HTU21D;8365;51.030;4.696;2023-04-24T09:07:35;10.77;118.99
16505;HTU21D;8365;51.030;4.696;2023-04-24T09:10:09;10.68;118.99
16505;HTU21D;8365;51.030;4.696;2023-04-24T09:12:41;10.75;118.99
16505;HTU21D;8365;51.030;4.696;2023-04-24T09:15:12;10.60;118.99
16505;HTU21D;8365;51.030;4.696;2023-04-24T09:17:43;10.58;118.99
16505;HTU21D;8365;51.030;4.696;2023-04-24T09:20:13;10.68;118.99
16505;HTU21D;8365;51.030;4.696;2023-04-24T09:22:45;10.79;118.99
16505;HTU21D;8365;51.030;4.696;2023-04-24T09:25:16;11.12;118.99
16505;HTU21D;8365;51.030;4.696;2023-04-24T09:27:46;11.20;118.99
16505;HTU21D;8365;51.030;4.696;2023-04-24T09:30:21;11.37;118.99
16505;HTU21D;8365;51.030;4.696;2023-04-24T09:33:15;11.22;118.99
16505;HTU21D;8365;51.030;4.696;2023-04-24T09:35:49;11.40;118.99
16505;HTU21D;8365;51.030;4.696;2023-04-24T09:38:30;11.10;116.18
16505;HTU21D;8365;51.030;4.696;2023-04-24T09:41:04;11.08;118.12
16505;HTU21D;8365;51.030;4.696;2023-04-24T09:43:35;11.33;118.99
16505;HTU21D;8365;51.030;4.696;2023-04-24T09:46:07;12.05;112.05
16505;HTU21D;8365;51.030;4.696;2023-04-24T09:48:38;12.93;107.78
16505;HTU21D;8365;51.030;4.696;2023-04-24T09:51:09;12.75;108.32
16505;HTU21D;8365;51.030;4.696;2023-04-24T09:53:46;12.22;109.17
16505;HTU21D;8365;51.030;4.696;2023-04-24T09:56:17;12.15;112.00
16505;HTU21D;8365;51.030;4.696;2023-04-24T09:58:48;12.12;110.65
16505;HTU21D;8365;51.030;4.696;2023-04-24T10:01:31;11.66;110.87
16505;HTU21D;8365;51.030;4.696;2023-04-24T10:04:02;11.33;109.69
16505;HTU21D;8365;51.030;4.696;2023-04-24T10:06:35;11.49;111.67
16505;HTU21D;8365;51.030;4.696;2023-04-24T10:09:06;11.75;108.39
16505;HTU21D;8365;51.030;4.696;2023-04-24T10:11:37;11.99;102.42
16505;HTU21D;8365;51.030;4.696;2023-04-24T10:14:09;11.62;102.37
16505;HTU21D;8365;51.030;4.696;2023-04-24T10:16:42;11.63;103.45
16505;HTU21D;8365;51.030;4.696;2023-04-24T10:19:14;11.48;102.51
16505;HTU21D;8365;51.030;4.696;2023-04-24T10:21:45;11.19;105.34
16505;HTU21D;8365;51.030;4.696;2023-04-24T10:24:19;10.95;104.79
16505;HTU21D;8365;51.030;4.696;2023-04-24T10:26:53;11.07;106.83
16505;HTU21D;8365;51.030;4.696;2023-04-24T10:29:24;11.11;105.27
16505;HTU21D;8365;51.030;4.696;2023-04-24T10:31:55;11.25;105.23
16505;HTU21D;8365;51.030;4.696;2023-04-24T10:34:25;11.42;104.50
16505;HTU21D;8365;51.030;4.696;2023-04-24T10:36:56;11.51;102.63
16505;HTU21D;8365;51.030;4.696;2023-04-24T10:39:27;11.33;102.92
16505;HTU21D;8365;51.030;4.696;2023-04-24T10:41:57;11.44;104.35
16505;HTU21D;8365;51.030;4.696;2023-04-24T10:44:36;11.24;101.83
16505;HTU21D;8365;51.030;4.696;2023-04-24T10:47:13;11.25;99.78
16505;HTU21D;8365;51.030;4.696;2023-04-24T10:49:44;11.15;99.90
16505;HTU21D;8365;51.030;4.696;2023-04-24T10:52:15;11.32;102.02
16505;HTU21D;8365;51.030;4.696;2023-04-24T10:54:47;11.32;101.37
16505;HTU21D;8365;51.030;4.696;2023-04-24T11:00:14;11.79;100.24
16505;HTU21D;8365;51.030;4.696;2023-04-24T11:02:47;12.19;98.00
16505;HTU21D;8365;51.030;4.696;2023-04-24T11:05:49;12.62;97.20
16505;HTU21D;8365;51.030;4.696;2023-04-24T11:08:23;12.84;96.06
16505;HTU21D;8365;51.030;4.696;2023-04-24T11:21:59;12.41;95.39
16505;HTU21D;8365;51.030;4.696;2023-04-24T11:25:01;12.35;97.28
16505;HTU21D;8365;51.030;4.696;2023-04-24T11:27:44;12.47;97.92
16505;HTU21D;8365;51.030;4.696;2023-04-24T11:30:20;12.29;99.09
16505;HTU21D;8365;51.030;4.696;2023-04-24T11:32:51;12.50;95.68
16505;HTU21D;8365;51.030;4.696;2023-04-24T11:35:22;12.20;95.47
16505;HTU21D;8365;51.030;4.696;2023-04-24T11:37:55;12.12;94.84
16505;HTU21D;8365;51.030;4.696;2023-04-24T11:40:25;12.40;96.38
16505;HTU21D;8365;51.030;4.696;2023-04-24T11:42:56;12.25;95.35
16505;HTU21D;8365;51.030;4.696;2023-04-24T11:45:28;12.61;95.00
16505;HTU21D;8365;51.030;4.696;2023-04-24T11:47:59;13.04;88.65
16505;HTU21D;8365;51.030;4.696;2023-04-24T11:50:29;13.17;93.21
16505;HTU21D;8365;51.030;4.696;2023-04-24T11:53:00;13.51;89.30
16505;HTU21D;8365;51.030;4.696;2023-04-24T11:55:33;13.35;89.47
16505;HTU21D;8365;51.030;4.696;2023-04-24T11:58:05;13.37;91.76
16505;HTU21D;8365;51.030;4.696;2023-04-24T12:00:36;13.27;91.56
16505;HTU21D;8365;51.030;4.696;2023-04-24T12:03:11;12.80;92.36
16505;HTU21D;8365;51.030;4.696;2023-04-24T12:05:42;13.06;91.59
16505;HTU21D;8365;51.030;4.696;2023-04-24T12:08:29;13.27;90.98
16505;HTU21D;8365;51.030;4.696;2023-04-24T12:11:03;13.10;89.21
16505;HTU21D;8365;51.030;4.696;2023-04-24T12:13:34;13.70;88.28
16505;HTU21D;8365;51.030;4.696;2023-04-24T12:16:07;13.80;85.62
16505;HTU21D;8365;51.030;4.696;2023-04-24T12:18:44;13.33;85.48
16505;HTU21D;8365;51.030;4.696;2023-04-24T12:21:19;13.10;87.87
16505;HTU21D;8365;51.030;4.696;2023-04-24T12:23:50;13.41;89.05
16505;HTU21D;8365;51.030;4.696;2023-04-24T12:26:21;13.63;88.19
16505;HTU21D;8365;51.030;4.696;2023-04-24T12:28:52;14.08;84.33
16505;HTU21D;8365;51.030;4.696;2023-04-24T12:31:23;13.71;84.77
16505;HTU21D;8365;51.030;4.696;2023-04-24T12:33:54;13.59;88.24
16505;HTU21D;8365;51.030;4.696;2023-04-24T12:36:25;13.56;88.73
16505;HTU21D;8365;51.030;4.696;2023-04-24T12:38:56;13.98;87.74
16505;HTU21D;8365;51.030;4.696;2023-04-24T12:41:30;13.88;83.70
16505;HTU21D;8365;51.030;4.696;2023-04-24T12:44:01;13.62;83.70
16505;HTU21D;8365;51.030;4.696;2023-04-24T12:46:31;13.80;84.80
16505;HTU21D;8365;51.030;4.696;2023-04-24T12:49:01;13.99;84.72
16505;HTU21D;8365;51.030;4.696;2023-04-24T12:51:32;13.88;82.36
16505;HTU21D;8365;51.030;4.696;2023-04-24T12:54:02;13.83;83.87
16505;HTU21D;8365;51.030;4.696;2023-04-24T12:56:33;15.30;78.10
16505;HTU21D;8365;51.030;4.696;2023-04-24T12:59:03;15.58;74.16
16505;HTU21D;8365;51.030;4.696;2023-04-24T13:01:34;15.67;69.76
16505;HTU21D;8365;51.030;4.696;2023-04-24T13:04:05;15.58;70.67
16505;HTU21D;8365;51.030;4.696;2023-04-24T13:06:36;15.40;71.53
16505;HTU21D;8365;51.030;4.696;2023-04-24T13:09:06;15.68;71.68
16505;HTU21D;8365;51.030;4.696;2023-04-24T13:11:37;16.67;65.66
16505;HTU21D;8365;51.030;4.696;2023-04-24T13:14:07;16.12;65.89
16505;HTU21D;8365;51.030;4.696;2023-04-24T13:16:38;16.21;68.87
16505;HTU21D;8365;51.030;4.696;2023-04-24T13:19:08;16.19;67.78
16505;HTU21D;8365;51.030;4.696;2023-04-24T13:21:39;16.51;65.10
16505;HTU21D;8365;51.030;4.696;2023-04-24T13:24:09;16.17;68.33
16505;HTU21D;8365;51.030;4.696;2023-04-24T13:26:40;16.31;66.33
16505;HTU21D;8365;51.030;4.696;2023-04-24T13:29:10;15.95;64.92
16505;HTU21D;8365;51.030;4.696;2023-04-24T13:31:41;15.75;66.31
16505;HTU21D;8365;51.030;4.696;2023-04-24T13:34:12;16.28;65.21
16505;HTU21D;8365;51.030;4.696;2023-04-24T13:36:42;16.18;66.44
16505;HTU21D;8365;51.030;4.696;2023-04-24T13:39:13;16.54;65.33
16505;HTU21D;8365;51.030;4.696;2023-04-24T13:41:43;17.05;62.28
16505;HTU21D;8365;51.030;4.696;2023-04-24T13:44:16;16.70;63.18
16505;HTU21D;8365;51.030;4.696;2023-04-24T13:46:48;16.32;65.33
16505;HTU21D;8365;51.030;4.696;2023-04-24T13:49:19;15.54;68.16
16505;HTU21D;8365;51.030;4.696;2023-04-24T13:51:50;15.37;69.95
16505;HTU21D;8365;51.030;4.696;2023-04-24T13:54:21;15.89;68.69
16505;HTU21D;8365;51.030;4.696;2023-04-24T13:56:56;16.73;65.66
16505;HTU21D;8365;51.030;4.696;2023-04-24T13:59:26;18.14;61.80
16505;HTU21D;8365;51.030;4.696;2023-04-24T14:01:57;18.24;57.87
16505;HTU21D;8365;51.030;4.696;2023-04-24T14:04:27;17.10;58.83
16505;HTU21D;8365;51.030;4.696;2023-04-24T14:06:58;16.64;61.67
16505;HTU21D;8365;51.030;4.696;2023-04-24T14:09:28;16.91;61.24
16505;HTU21D;8365;51.030;4.696;2023-04-24T14:11:59;17.90;57.57
16505;HTU21D;8365;51.030;4.696;2023-04-24T14:14:31;17.81;57.13
16505;HTU21D;8365;51.030;4.696;2023-04-24T14:17:02;17.10;56.63
16505;HTU21D;8365;51.030;4.696;2023-04-24T14:19:32;16.80;59.47
16505;HTU21D;8365;51.030;4.696;2023-04-24T14:22:03;16.32;60.22
16505;HTU21D;8365;51.030;4.696;2023-04-24T14:24:38;16.71;58.43
16505;HTU21D;8365;51.030;4.696;2023-04-24T14:27:08;17.11;57.19
16505;HTU21D;8365;51.030;4.696;2023-04-24T14:29:39;18.00;55.51
16505;HTU21D;8365;51.030;4.696;2023-04-24T14:32:09;18.40;54.84
16505;HTU21D;8365;51.030;4.696;2023-04-24T14:34:40;17.16;57.39
16505;HTU21D;8365;51.030;4.696;2023-04-24T14:37:11;16.98;56.82
16505;HTU21D;8365;51.030;4.696;2023-04-24T14:39:44;16.07;58.67
16505;HTU21D;8365;51.030;4.696;2023-04-24T14:42:15;15.88;62.18
16505;HTU21D;8365;51.030;4.696;2023-04-24T14:44:48;16.52;61.23
16505;HTU21D;8365;51.030;4.696;2023-04-24T14:47:18;15.96;61.09
16505;HTU21D;8365;51.030;4.696;2023-04-24T14:49:51;15.33;61.92
16505;HTU21D;8365;51.030;4.696;2023-04-24T14:52:22;15.19;64.94
16505;HTU21D;8365;51.030;4.696;2023-04-24T14:54:52;15.62;62.63
16505;HTU21D;8365;51.030;4.696;2023-04-24T14:57:23;16.13;62.18
16505;HTU21D;8365;51.030;4.696;2023-04-24T14:59:53;16.13;61.97
16505;HTU21D;8365;51.030;4.696;2023-04-24T15:02:24;16.34;59.54
16505;HTU21D;8365;51.030;4.696;2023-04-24T15:04:54;17.08;58.44
16505;HTU21D;8365;51.030;4.696;2023-04-24T15:07:25;17.40;58.47
16505;HTU21D;8365;51.030;4.696;2023-04-24T15:09:56;17.66;56.68
16505;HTU21D;8365;51.030;4.696;2023-04-24T15:12:26;18.00;55.57
16505;HTU21D;8365;51.030;4.696;2023-04-24T15:14:58;17.56;53.93
16505;HTU21D;8365;51.030;4.696;2023-04-24T15:17:29;17.07;56.11
16505;HTU21D;8365;51.030;4.696;2023-04-24T15:20:00;16.39;59.22
16505;HTU21D;8365;51.030;4.696;2023-04-24T15:22:30;15.85;59.39
16505;HTU21D;8365;51.030;4.696;2023-04-24T15:25:01;15.58;61.02
16505;HTU21D;8365;51.030;4.696;2023-04-24T15:27:42;15.39;64.47
16505;HTU21D;8365;51.030;4.696;2023-04-24T15:30:15;14.85;62.83
16505;HTU21D;8365;51.030;4.696;2023-04-24T15:32:46;14.99;66.13
16505;HTU21D;8365;51.030;4.696;2023-04-24T15:35:16;14.30;64.88
16505;HTU21D;8365;51.030;4.696;2023-04-24T15:37:47;13.98;66.18
16505;HTU21D;8365;51.030;4.696;2023-04-24T15:40:18;13.90;66.44
16505;HTU21D;8365;51.030;4.696;2023-04-24T15:42:48;13.71;69.62
16505;HTU21D;8365;51.030;4.696;2023-04-24T15:45:22;13.84;69.41
16505;HTU21D;8365;51.030;4.696;2023-04-24T15:47:52;13.51;67.81
16505;HTU21D;8365;51.030;4.696;2023-04-24T15:50:23;13.45;68.70
16505;HTU21D;8365;51.030;4.696;2023-04-24T15:52:53;13.56;67.95
16505;HTU21D;8365;51.030;4.696;2023-04-24T15:55:24;13.85;67.43
16505;HTU21D;8365;51.030;4.696;2023-04-24T15:57:55;13.80;64.75
16505;HTU21D;8365;51.030;4.696;2023-04-24T16:00:25;13.68;65.75
16505;HTU21D;8365;51.030;4.696;2023-04-24T16:03:01;13.69;64.83
16505;HTU21D;8365;51.030;4.696;2023-04-24T16:05:32;13.82;66.92
16505;HTU21D;8365;51.030;4.696;2023-04-24T16:08:02;14.00;66.73